Time;durP1;ratioP1;P1;durP2;ratioP2;P2;SDS_P1;SDS_P2;PMS_P1;PMS_P2;Temp;Humidity;BMP_temperature;BMP_pressure;BME280_temperature;BME280_humidity;BME280_pressure;Samples;Min_cycle;Max_cycle;Signal;HPM_P1;HPM_P2
2021/04/12 00:01:05;;;;;;;7.07;2.75;;;14.80;96.70;;;;;;4978029;28;20037;-76
2021/04/12 00:03:39;;;;;;;9.05;2.63;;;14.80;96.70;;;;;;4976201;28;20470;-76
2021/04/12 00:06:15;;;;;;;6.43;2.58;;;14.70;96.70;;;;;;4961569;28;20081;-76
2021/04/12 00:08:50;;;;;;;8.90;2.72;;;14.70;96.70;;;;;;4987209;28;20057;-76
2021/04/12 00:11:27;;;;;;;8.90;2.67;;;14.80;96.70;;;;;;4974290;28;20050;-76
2021/04/12 00:14:01;;;;;;;7.30;2.45;;;14.80;96.70;;;;;;4979379;28;20054;-76
2021/04/12 00:16:36;;;;;;;6.00;2.47;;;14.70;96.70;;;;;;4972037;28;20069;-76
2021/04/12 00:19:10;;;;;;;8.70;2.83;;;14.70;96.70;;;;;;4967898;28;20057;-76
2021/04/12 00:21:41;;;;;;;7.03;2.25;;;14.70;96.70;;;;;;4969856;28;20344;-76
2021/04/12 00:24:17;;;;;;;3.38;2.10;;;14.70;96.70;;;;;;4972929;28;20125;-76
2021/04/12 00:26:51;;;;;;;7.33;2.73;;;14.70;96.70;;;;;;4993858;28;20049;-75
2021/04/12 00:29:25;;;;;;;3.90;2.30;;;14.60;96.70;;;;;;4994496;28;20601;-76
2021/04/12 00:31:58;;;;;;;8.98;2.58;;;14.60;96.70;;;;;;4984944;28;20046;-76
2021/04/12 00:34:33;;;;;;;6.07;2.80;;;14.60;96.70;;;;;;4964590;28;20054;-75
2021/04/12 00:37:06;;;;;;;8.55;3.58;;;14.60;96.70;;;;;;4983124;28;20100;-77
2021/04/12 00:39:41;;;;;;;9.05;2.70;;;14.60;96.70;;;;;;4960630;28;20050;-76
2021/04/12 00:42:38;;;;;;;6.78;2.72;;;14.60;96.70;;;;;;4973854;28;20133;-76
2021/04/12 00:45:19;;;;;;;5.28;2.30;;;14.60;96.70;;;;;;4962706;28;20059;-76
2021/04/12 00:47:55;;;;;;;3.20;2.20;;;14.60;96.70;;;;;;4971273;28;20043;-76
2021/04/12 00:50:35;;;;;;;7.45;2.90;;;14.60;96.70;;;;;;4960136;28;20057;-76
2021/04/12 00:53:34;;;;;;;7.80;2.78;;;14.60;96.70;;;;;;4948790;28;20066;-76
2021/04/12 00:56:08;;;;;;;4.70;2.63;;;14.60;96.70;;;;;;4965727;28;20063;-76
2021/04/12 00:58:46;;;;;;;5.30;2.67;;;14.60;96.70;;;;;;4952497;28;20046;-75
2021/04/12 01:01:38;;;;;;;6.80;2.25;;;14.60;96.70;;;;;;4960973;28;20149;-76
2021/04/12 01:04:25;;;;;;;5.32;2.05;;;14.60;96.70;;;;;;4963541;28;20057;-76
2021/04/12 01:07:26;;;;;;;7.63;2.17;;;14.60;96.70;;;;;;4965680;28;20043;-76
2021/04/12 01:10:28;;;;;;;4.32;1.77;;;14.60;96.70;;;;;;4940633;28;20057;-78
2021/04/12 01:13:33;;;;;;;4.55;1.80;;;14.60;96.70;;;;;;4978719;28;20339;-78
2021/04/12 01:16:31;;;;;;;4.38;1.85;;;14.60;96.70;;;;;;4964429;28;20046;-78
2021/04/12 01:19:20;;;;;;;3.88;1.73;;;14.60;96.70;;;;;;4974684;28;20129;-78
2021/04/12 01:22:29;;;;;;;3.45;1.45;;;14.60;96.70;;;;;;4981714;28;20046;-78
2021/04/12 01:25:33;;;;;;;3.65;1.70;;;14.60;96.70;;;;;;4969185;28;20503;-77
2021/04/12 01:28:41;;;;;;;3.72;1.50;;;14.60;96.70;;;;;;4966093;28;20054;-77
2021/04/12 01:31:57;;;;;;;2.33;1.30;;;14.60;96.70;;;;;;4983608;28;20484;-78
2021/04/12 01:34:48;;;;;;;2.53;1.10;;;14.60;96.70;;;;;;4870552;29;20044;-77
2021/04/12 01:37:51;;;;;;;2.55;1.02;;;14.60;96.70;;;;;;4956406;28;20042;-78
2021/04/12 01:40:27;;;;;;;2.13;0.98;;;14.60;96.70;;;;;;4977361;28;20265;-78
2021/04/12 01:43:10;;;;;;;1.98;0.73;;;14.60;96.70;;;;;;4979362;28;20042;-77
2021/04/12 01:45:47;;;;;;;1.63;0.75;;;14.50;96.70;;;;;;4981885;28;20034;-77
2021/04/12 01:48:43;;;;;;;2.00;0.60;;;14.50;96.70;;;;;;4980083;28;20038;-77
2021/04/12 01:51:52;;;;;;;0.80;0.43;;;14.60;96.70;;;;;;4969299;28;20104;-78
2021/04/12 01:54:48;;;;;;;1.30;0.40;;;14.60;96.70;;;;;;4982001;28;20038;-78
2021/04/12 01:57:49;;;;;;;2.20;0.50;;;14.60;96.70;;;;;;4977864;28;20050;-78
2021/04/12 02:00:37;;;;;;;1.95;0.65;;;14.60;96.70;;;;;;4945937;28;20062;-78
2021/04/12 02:03:27;;;;;;;0.85;0.43;;;14.60;96.70;;;;;;4996361;28;20133;-78
2021/04/12 02:06:29;;;;;;;0.73;0.30;;;14.50;96.70;;;;;;4981246;28;20558;-78
2021/04/12 02:09:10;;;;;;;0.73;0.40;;;14.50;96.70;;;;;;4982335;28;20046;-78
2021/04/12 02:11:58;;;;;;;1.33;0.38;;;14.50;96.70;;;;;;4981281;28;20568;-78
2021/04/12 02:14:42;;;;;;;0.95;0.30;;;14.40;96.70;;;;;;4976511;28;20054;-78
2021/04/12 02:17:18;;;;;;;1.50;0.40;;;14.50;96.70;;;;;;4980650;28;20520;-78
2021/04/12 02:20:07;;;;;;;;;;;14.50;96.70;;;;;;4982428;28;20046;-78
2021/04/12 02:22:55;;;;;;;0.55;0.30;;;14.50;96.70;;;;;;4963799;28;20303;-78
2021/04/12 02:25:34;;;;;;;1.10;0.47;;;14.50;96.70;;;;;;4961972;28;20575;-78
2021/04/12 02:28:15;;;;;;;1.00;0.35;;;14.50;96.70;;;;;;4982769;28;20546;-77
2021/04/12 02:30:50;;;;;;;2.08;0.60;;;14.50;96.70;;;;;;4975492;28;20606;-77
2021/04/12 02:33:27;;;;;;;2.13;0.43;;;14.50;96.70;;;;;;4982112;28;20212;-78
2021/04/12 02:36:05;;;;;;;0.85;0.40;;;14.40;96.70;;;;;;4985400;28;20472;-78
2021/04/12 02:38:51;;;;;;;1.08;0.47;;;14.40;96.70;;;;;;4986382;28;20054;-78
2021/04/12 02:41:39;;;;;;;1.52;0.40;;;14.50;96.70;;;;;;4989860;28;20069;-78
2021/04/12 02:44:32;;;;;;;0.82;0.40;;;14.50;96.70;;;;;;4965259;28;20057;-78
2021/04/12 02:47:26;;;;;;;1.83;0.43;;;14.50;96.70;;;;;;4974655;28;20042;-78
2021/04/12 02:50:05;;;;;;;1.70;0.63;;;14.50;96.70;;;;;;4944242;28;20046;-78
2021/04/12 02:52:42;;;;;;;1.23;0.45;;;14.50;96.70;;;;;;4969146;28;20077;-78
2021/04/12 02:55:40;;;;;;;2.70;0.40;;;14.50;96.70;;;;;;4980257;28;20609;-78
2021/04/12 02:58:29;;;;;;;3.70;0.60;;;14.50;96.70;;;;;;4983357;28;20054;-78
2021/04/12 03:01:10;;;;;;;1.85;0.80;;;14.50;96.70;;;;;;4977323;28;20104;-78
2021/04/12 03:04:05;;;;;;;1.15;0.40;;;14.50;96.70;;;;;;4986853;28;20391;-78
2021/04/12 03:06:54;;;;;;;0.63;0.45;;;14.50;96.70;;;;;;4986892;28;20677;-78
2021/04/12 03:10:01;;;;;;;2.03;0.57;;;14.50;96.70;;;;;;4977533;28;20055;-78
2021/04/12 03:12:50;;;;;;;2.43;0.70;;;14.50;96.70;;;;;;4988371;28;20047;-79
2021/04/12 03:15:49;;;;;;;1.10;0.60;;;14.50;96.70;;;;;;4994706;28;20305;-78
2021/04/12 03:18:37;;;;;;;1.10;0.50;;;14.50;96.70;;;;;;4981223;28;20053;-78
2021/04/12 03:21:46;;;;;;;0.98;0.60;;;14.50;96.70;;;;;;4994148;28;20640;-77
2021/04/12 03:24:19;;;;;;;3.38;1.00;;;14.50;96.70;;;;;;4999820;28;20302;-78
2021/04/12 03:27:13;;;;;;;3.03;0.70;;;14.50;96.70;;;;;;4983592;28;20053;-78
2021/04/12 03:29:53;;;;;;;1.50;0.80;;;14.50;96.70;;;;;;4985059;28;20049;-78
2021/04/12 03:32:50;;;;;;;2.58;1.10;;;14.50;96.70;;;;;;4972117;28;20148;-78
2021/04/12 03:35:24;;;;;;;3.72;1.10;;;14.50;96.70;;;;;;4982930;28;20594;-78
2021/04/12 03:38:11;;;;;;;2.20;1.00;;;14.60;96.70;;;;;;4981073;28;20046;-78
2021/04/12 03:40:42;;;;;;;3.05;1.10;;;14.60;96.70;;;;;;4938019;28;20061;-78
2021/04/12 03:43:36;;;;;;;2.20;1.02;;;14.60;96.70;;;;;;4959135;28;20042;-78
2021/04/12 03:46:49;;;;;;;1.17;0.70;;;14.60;96.70;;;;;;4948134;28;20133;-78
2021/04/12 03:49:43;;;;;;;2.58;1.02;;;14.60;96.70;;;;;;4870364;29;20051;-78
2021/04/12 03:52:36;;;;;;;3.20;0.85;;;14.60;96.70;;;;;;4898169;29;20430;-78
2021/04/12 03:55:40;;;;;;;2.42;0.93;;;14.60;96.70;;;;;;4953178;28;20054;-78
2021/04/12 03:58:26;;;;;;;1.40;0.90;;;14.60;96.70;;;;;;4868760;29;20134;-78
2021/04/12 04:01:08;;;;;;;4.30;1.60;;;14.60;96.70;;;;;;4964517;28;20148;-78
2021/04/12 04:04:00;;;;;;;5.03;1.08;;;14.60;96.70;;;;;;4969631;28;20504;-77
2021/04/12 04:07:06;;;;;;;2.97;1.25;;;14.60;96.70;;;;;;4961229;28;20074;-78
2021/04/12 04:09:47;;;;;;;2.50;1.10;;;14.50;96.70;;;;;;4979836;28;20047;-78
2021/04/12 04:12:46;;;;;;;2.53;1.10;;;14.40;96.70;;;;;;4951712;28;20069;-78
2021/04/12 04:15:36;;;;;;;4.18;1.58;;;14.30;96.70;;;;;;4924589;28;20050;-77
2021/04/12 04:18:25;;;;;;;3.47;1.40;;;14.30;96.70;;;;;;4958914;28;20052;-77
2021/04/12 04:21:29;;;;;;;7.53;1.52;;;14.30;96.70;;;;;;4946569;28;20527;-78
2021/04/12 04:24:18;;;;;;;2.80;1.10;;;14.20;96.70;;;;;;4953989;28;20046;-78
2021/04/12 04:27:08;;;;;;;3.55;1.50;;;14.20;96.70;;;;;;4957138;28;20046;-78
2021/04/12 04:30:04;;;;;;;2.30;1.48;;;14.20;96.70;;;;;;4980788;28;20042;-78
2021/04/12 04:33:08;;;;;;;1.38;1.00;;;14.30;96.70;;;;;;4931661;28;20055;-78
2021/04/12 04:35:52;;;;;;;2.65;1.23;;;14.30;96.70;;;;;;4975752;28;20439;-78
2021/04/12 04:38:38;;;;;;;3.00;2.00;;;14.30;96.70;;;;;;4952158;28;20082;-78
2021/04/12 04:41:22;;;;;;;3.60;1.50;;;14.30;96.70;;;;;;4944317;28;20042;-77
2021/04/12 04:44:34;;;;;;;4.82;1.85;;;14.30;96.70;;;;;;4996216;28;20092;-78
2021/04/12 04:47:55;;;;;;;4.07;1.70;;;14.30;96.70;;;;;;4966592;28;20710;-78
2021/04/12 04:50:46;;;;;;;2.95;1.63;;;14.30;96.70;;;;;;4964885;28;20142;-77
2021/04/12 04:53:46;;;;;;;3.22;1.65;;;14.40;96.70;;;;;;4993042;28;20044;-77
2021/04/12 04:56:23;;;;;;;3.15;1.50;;;14.40;96.70;;;;;;4936975;28;20184;-77
2021/04/12 04:59:07;;;;;;;4.05;2.10;;;14.40;96.70;;;;;;4981904;28;20034;-77
2021/04/12 05:02:31;;;;;;;4.78;2.00;;;14.30;96.70;;;;;;4993307;28;20045;-77
2021/04/12 05:05:40;;;;;;;4.25;2.05;;;14.30;96.70;;;;;;4897749;28;20078;-77
2021/04/12 05:08:45;;;;;;;3.58;2.65;;;14.30;96.70;;;;;;4951920;28;20043;-77
2021/04/12 05:11:32;;;;;;;1.98;1.63;;;14.20;96.70;;;;;;4978696;28;20055;-77
2021/04/12 05:14:33;;;;;;;;;;;14.30;96.70;;;;;;4974584;28;20041;-77
2021/04/12 05:17:40;;;;;;;2.97;1.85;;;14.30;96.70;;;;;;4895509;29;19926;-77
2021/04/12 05:20:29;;;;;;;3.13;1.60;;;14.30;96.70;;;;;;4855064;29;20089;-77
2021/04/12 05:23:12;;;;;;;3.17;1.67;;;14.30;96.70;;;;;;4966332;28;20470;-77
2021/04/12 05:26:05;;;;;;;6.05;1.60;;;14.30;96.70;;;;;;4980430;28;20145;-77
2021/04/12 05:29:03;;;;;;;4.45;1.95;;;14.30;96.70;;;;;;4993754;28;20499;-77
2021/04/12 05:31:49;;;;;;;3.50;1.33;;;14.30;96.70;;;;;;5003553;28;20034;-77
2021/04/12 05:34:52;;;;;;;2.90;1.13;;;14.30;96.70;;;;;;5002059;28;20123;-77
2021/04/12 05:37:59;;;;;;;3.72;1.27;;;14.30;96.70;;;;;;4977661;28;20050;-77
2021/04/12 05:40:47;;;;;;;4.32;1.50;;;14.30;96.70;;;;;;4927058;28;20082;-77
2021/04/12 05:43:24;;;;;;;2.67;1.00;;;14.20;96.70;;;;;;4979906;28;20070;-77
2021/04/12 05:46:15;;;;;;;4.28;1.17;;;14.20;96.70;;;;;;4966019;28;20042;-77
2021/04/12 05:49:13;;;;;;;2.40;1.23;;;14.10;96.70;;;;;;4960084;28;20046;-77
2021/04/12 05:52:02;;;;;;;2.42;1.50;;;14.10;96.70;;;;;;4949410;28;20379;-77
2021/04/12 05:54:51;;;;;;;4.45;1.60;;;14.10;96.70;;;;;;4966483;28;20057;-77
2021/04/12 05:57:46;;;;;;;2.67;1.23;;;14.20;96.70;;;;;;4948694;28;20050;-77
2021/04/12 06:00:26;;;;;;;1.20;1.10;;;14.20;96.70;;;;;;4962440;28;20433;-78
2021/04/12 06:03:13;;;;;;;5.68;1.60;;;14.20;96.70;;;;;;4976130;28;20652;-77
2021/04/12 06:05:53;;;;;;;2.78;1.35;;;14.20;96.70;;;;;;4960415;28;20144;-77
2021/04/12 06:09:05;;;;;;;3.20;1.52;;;14.20;96.70;;;;;;4957444;28;20066;-77
2021/04/12 06:11:58;;;;;;;2.58;1.52;;;14.30;96.70;;;;;;4931119;28;20132;-77
2021/04/12 06:14:55;;;;;;;2.60;1.55;;;14.30;96.70;;;;;;4964109;28;20058;-77
2021/04/12 06:17:54;;;;;;;2.90;1.73;;;14.30;96.70;;;;;;4969648;28;20145;-77
2021/04/12 06:20:57;;;;;;;3.30;1.70;;;14.30;96.70;;;;;;4964415;28;20076;-77
2021/04/12 06:23:52;;;;;;;2.95;1.42;;;14.30;96.70;;;;;;4982047;28;20583;-77
2021/04/12 06:26:48;;;;;;;2.90;1.52;;;14.30;96.70;;;;;;4978431;28;20125;-78
2021/04/12 06:29:51;;;;;;;4.45;1.15;;;14.20;96.70;;;;;;4964696;28;20038;-77
2021/04/12 06:32:59;;;;;;;2.47;1.42;;;14.20;96.70;;;;;;4963031;28;20117;-77
2021/04/12 06:36:04;;;;;;;3.70;1.52;;;14.30;96.70;;;;;;4959500;28;20528;-77
2021/04/12 06:39:15;;;;;;;3.95;1.27;;;14.30;96.70;;;;;;4979421;28;20085;-77
2021/04/12 06:42:28;;;;;;;2.92;1.35;;;14.20;96.70;;;;;;4965830;28;20504;-77
2021/04/12 06:45:52;;;;;;;6.72;1.77;;;14.20;96.70;;;;;;4910073;28;20054;-77
2021/04/12 06:49:02;;;;;;;3.10;1.83;;;14.20;96.70;;;;;;4940042;28;20055;-78
2021/04/12 06:52:23;;;;;;;5.60;1.60;;;14.20;96.70;;;;;;4899717;28;20054;-78
2021/04/12 06:55:20;;;;;;;6.18;1.48;;;14.30;96.70;;;;;;4961096;28;20452;-77
2021/04/12 06:58:35;;;;;;;3.22;1.48;;;14.30;96.70;;;;;;4976315;28;20046;-77
2021/04/12 07:01:41;;;;;;;5.45;1.52;;;14.30;96.70;;;;;;4945693;28;20057;-77
2021/04/12 07:04:30;;;;;;;3.45;1.55;;;14.40;96.70;;;;;;4962497;28;20462;-78
2021/04/12 07:07:36;;;;;;;4.68;1.83;;;14.50;96.70;;;;;;4948620;28;20092;-77
2021/04/12 07:10:32;;;;;;;4.53;1.70;;;14.60;96.70;;;;;;4957136;28;20042;-77
2021/04/12 07:13:13;;;;;;;3.25;1.90;;;14.60;96.70;;;;;;4978639;28;20501;-78
2021/04/12 07:16:13;;;;;;;4.00;1.67;;;14.70;96.70;;;;;;4966723;28;20600;-78
2021/04/12 07:19:22;;;;;;;4.28;1.73;;;14.70;96.70;;;;;;4976011;28;20304;-76
2021/04/12 07:22:26;;;;;;;4.57;1.45;;;14.60;96.70;;;;;;4928826;28;20132;-77
2021/04/12 07:25:27;;;;;;;4.22;1.40;;;14.70;96.70;;;;;;4961844;28;20046;-77
2021/04/12 07:28:31;;;;;;;6.57;2.20;;;14.80;96.70;;;;;;4977442;28;20126;-76
2021/04/12 07:31:36;;;;;;;7.88;1.80;;;14.80;96.70;;;;;;4957198;28;20050;-76
2021/04/12 07:34:40;;;;;;;4.07;1.50;;;15.00;96.70;;;;;;4955818;28;20062;-77
2021/04/12 07:37:38;;;;;;;6.32;2.25;;;15.00;96.70;;;;;;4944212;28;20132;-77
2021/04/12 07:41:00;;;;;;;4.47;1.30;;;15.10;96.70;;;;;;4974769;28;20514;-77
2021/04/12 07:44:12;;;;;;;2.20;1.35;;;15.10;96.70;;;;;;4991750;28;20060;-77
2021/04/12 07:47:22;;;;;;;6.63;2.00;;;15.20;96.70;;;;;;4895545;28;20236;-77
2021/04/12 07:50:31;;;;;;;3.65;1.90;;;15.50;96.70;;;;;;4960133;28;20487;-77
2021/04/12 07:53:41;;;;;;;4.00;1.90;;;15.50;96.70;;;;;;4935429;28;20093;-78
2021/04/12 07:56:48;;;;;;;4.90;2.08;;;15.70;96.70;;;;;;4977236;28;20511;-77
2021/04/12 07:59:52;;;;;;;4.80;1.48;;;15.80;96.70;;;;;;4972796;28;20488;-77
2021/04/12 08:02:52;;;;;;;4.60;1.30;;;15.80;96.70;;;;;;4985648;28;20516;-77
2021/04/12 08:05:55;;;;;;;3.92;1.45;;;15.90;96.70;;;;;;4955150;28;20156;-78
2021/04/12 08:08:57;;;;;;;2.42;0.98;;;16.10;96.70;;;;;;4976905;28;20041;-77
2021/04/12 08:12:18;;;;;;;3.10;1.20;;;16.10;96.70;;;;;;4964311;28;20133;-77
2021/04/12 08:15:25;;;;;;;2.92;1.20;;;16.10;96.70;;;;;;4974241;28;20052;-77
2021/04/12 08:18:36;;;;;;;3.83;1.00;;;15.90;96.70;;;;;;4978425;28;20049;-76
2021/04/12 08:21:51;;;;;;;5.45;1.50;;;15.80;96.70;;;;;;4997738;28;20041;-76
2021/04/12 08:24:43;;;;;;;3.55;1.23;;;15.90;96.70;;;;;;4991145;28;20408;-76
2021/04/12 08:27:38;;;;;;;2.90;1.20;;;16.00;96.70;;;;;;4978178;28;20073;-76
2021/04/12 08:30:37;;;;;;;6.60;2.47;;;16.00;96.70;;;;;;4974264;28;20050;-76
2021/04/12 08:33:44;;;;;;;7.38;2.40;;;16.00;96.70;;;;;;4967220;28;20073;-77
2021/04/12 08:36:50;;;;;;;4.80;2.25;;;16.00;96.70;;;;;;4989954;28;20054;-77
2021/04/12 08:39:33;;;;;;;6.68;1.70;;;15.90;96.70;;;;;;4975756;28;20054;-76
2021/04/12 08:42:38;;;;;;;5.57;1.60;;;15.90;96.70;;;;;;4996935;28;20554;-76
2021/04/12 08:45:42;;;;;;;5.00;1.63;;;15.90;96.70;;;;;;4984775;28;20498;-75
2021/04/12 08:48:29;;;;;;;4.22;1.60;;;15.90;96.70;;;;;;4976707;28;20093;-76
2021/04/12 08:51:26;;;;;;;5.35;2.97;;;15.90;96.70;;;;;;4978531;28;20233;-77
2021/04/12 08:54:42;;;;;;;4.85;2.20;;;16.00;96.70;;;;;;4982125;28;20038;-76
2021/04/12 08:57:55;;;;;;;6.05;3.05;;;15.90;96.70;;;;;;4909851;29;20047;-77
2021/04/12 09:01:02;;;;;;;4.55;2.05;;;16.10;96.70;;;;;;4906480;29;20139;-77
2021/04/12 09:04:06;;;;;;;7.38;2.10;;;16.40;96.70;;;;;;4994755;28;20403;-76
2021/04/12 09:07:16;;;;;;;10.23;3.42;;;16.60;96.70;;;;;;4983728;28;20050;-76
2021/04/12 09:10:12;;;;;;;3.55;1.70;;;16.60;96.70;;;;;;4962002;28;20733;-76
2021/04/12 09:12:48;;;;;;;3.42;1.48;;;16.70;96.70;;;;;;4976539;28;20046;-76
2021/04/12 09:15:57;;;;;;;3.42;1.30;;;16.90;96.70;;;;;;4975449;28;20046;-77
2021/04/12 09:19:08;;;;;;;5.80;1.67;;;16.90;96.70;;;;;;4947894;28;20131;-77
2021/04/12 09:22:10;;;;;;;4.57;1.80;;;17.10;96.70;;;;;;4935437;28;20514;-77
2021/04/12 09:25:02;;;;;;;4.38;1.50;;;17.20;96.70;;;;;;4940885;28;20054;-77
2021/04/12 09:27:43;;;;;;;9.25;2.00;;;17.30;96.70;;;;;;5000218;28;20042;-76
2021/04/12 09:30:48;;;;;;;7.22;1.70;;;17.40;96.70;;;;;;4973389;28;20628;-77
2021/04/12 09:33:46;;;;;;;5.05;1.55;;;17.50;96.70;;;;;;4995076;28;20449;-77
2021/04/12 09:36:51;;;;;;;5.65;2.15;;;17.40;96.70;;;;;;4972994;28;20084;-77
2021/04/12 09:39:55;;;;;;;7.60;1.83;;;17.30;96.70;;;;;;4954146;28;20131;-76
2021/04/12 09:43:03;;;;;;;7.50;1.67;;;17.00;96.70;;;;;;4982996;28;20042;-77
2021/04/12 09:45:51;;;;;;;;;;;16.80;96.70;;;;;;5003356;28;20046;-76
2021/04/12 09:48:50;;;;;;;7.35;2.00;;;16.70;96.70;;;;;;4968232;28;20518;-76
2021/04/12 09:51:47;;;;;;;8.63;2.92;;;16.30;96.70;;;;;;4984459;28;20096;-76
2021/04/12 09:54:30;;;;;;;7.80;2.72;;;16.10;96.70;;;;;;4949896;28;20042;-76
2021/04/12 09:57:37;;;;;;;6.18;1.90;;;16.00;96.70;;;;;;4979026;28;20137;-76
2021/04/12 10:00:26;;;;;;;5.28;1.40;;;15.80;96.70;;;;;;5003917;28;20289;-77
2021/04/12 10:03:38;;;;;;;5.80;2.10;;;15.60;96.70;;;;;;4996527;28;20042;-77
2021/04/12 10:06:30;;;;;;;4.70;1.25;;;15.50;96.70;;;;;;4997889;28;20133;-78
2021/04/12 10:09:33;;;;;;;6.88;1.45;;;15.40;96.70;;;;;;4998818;28;20034;-77
2021/04/12 10:12:27;;;;;;;4.38;1.67;;;15.30;96.70;;;;;;5004497;28;20453;-77
2021/04/12 10:15:01;;;;;;;4.10;1.83;;;15.30;96.70;;;;;;4978511;28;20062;-77
2021/04/12 10:17:39;;;;;;;5.53;2.00;;;15.30;96.70;;;;;;4979441;28;20144;-77
2021/04/12 10:20:14;;;;;;;8.00;2.20;;;15.30;96.70;;;;;;4982754;28;20522;-78
2021/04/12 10:22:59;;;;;;;7.55;2.50;;;15.30;96.70;;;;;;4999567;28;20045;-76
2021/04/12 10:25:36;;;;;;;9.02;2.85;;;15.40;96.70;;;;;;4969534;28;20077;-76
2021/04/12 10:28:18;;;;;;;3.88;1.83;;;15.40;96.70;;;;;;4979034;28;20065;-76
2021/04/12 10:30:54;;;;;;;3.88;1.38;;;15.40;96.70;;;;;;4976430;28;20238;-76
2021/04/12 10:33:29;;;;;;;3.03;1.52;;;15.30;96.70;;;;;;4983287;28;20045;-76
2021/04/12 10:36:02;;;;;;;3.05;0.95;;;15.40;96.70;;;;;;4999230;28;20070;-77
2021/04/12 10:38:32;;;;;;;4.80;1.17;;;15.50;96.70;;;;;;4995081;28;20068;-76
2021/04/12 10:41:12;;;;;;;1.58;1.02;;;15.60;96.70;;;;;;4984576;28;20041;-76
2021/04/12 10:44:08;;;;;;;2.28;0.65;;;15.70;96.70;;;;;;4968501;28;20050;-76
2021/04/12 10:46:49;;;;;;;2.70;0.70;;;15.90;96.70;;;;;;4983924;28;20049;-76
2021/04/12 10:49:21;;;;;;;3.00;0.70;;;16.00;96.70;;;;;;4958572;28;20046;-76
2021/04/12 10:51:57;;;;;;;1.25;0.50;;;15.90;96.70;;;;;;4993926;28;20049;-76
2021/04/12 10:54:45;;;;;;;1.27;0.38;;;16.00;96.70;;;;;;4975790;28;20070;-76
2021/04/12 10:57:42;;;;;;;2.08;0.55;;;15.90;96.70;;;;;;4985823;28;20491;-76
2021/04/12 11:00:40;;;;;;;0.80;0.50;;;15.90;96.70;;;;;;4986357;28;20050;-76
2021/04/12 11:03:33;;;;;;;2.67;1.00;;;15.90;96.70;;;;;;4976658;28;20046;-76
2021/04/12 11:06:20;;;;;;;2.38;1.10;;;15.90;96.70;;;;;;4974228;28;20046;-75
2021/04/12 11:08:58;;;;;;;1.98;0.70;;;15.90;96.70;;;;;;4986302;28;20125;-76
2021/04/12 11:11:34;;;;;;;2.15;0.70;;;16.00;96.70;;;;;;4978211;28;20046;-76
2021/04/12 11:14:17;;;;;;;2.15;0.68;;;15.90;96.70;;;;;;4980742;28;20042;-76
2021/04/12 11:16:52;;;;;;;2.03;1.05;;;15.90;96.70;;;;;;4966164;28;20045;-76
2021/04/12 11:19:25;;;;;;;6.25;3.80;;;16.00;96.70;;;;;;4989331;28;20125;-77
2021/04/12 11:22:20;;;;;;;3.63;2.25;;;16.20;96.70;;;;;;4975485;28;20116;-77
2021/04/12 11:25:00;;;;;;;3.67;1.52;;;16.30;96.70;;;;;;4975601;28;20049;-77
2021/04/12 11:27:55;;;;;;;2.47;1.40;;;16.60;96.70;;;;;;4979056;28;20038;-76
2021/04/12 11:30:29;;;;;;;2.33;1.30;;;16.80;96.70;;;;;;4997262;28;20269;-77
2021/04/12 11:33:07;;;;;;;1.98;0.90;;;17.00;96.70;;;;;;4990320;28;20041;-77
2021/04/12 11:35:43;;;;;;;1.30;0.68;;;17.20;96.70;;;;;;4996135;28;20053;-76
2021/04/12 11:38:15;;;;;;;2.20;0.75;;;17.50;96.70;;;;;;4995666;28;20038;-77
2021/04/12 11:40:51;;;;;;;2.83;0.70;;;17.50;96.70;;;;;;4998777;28;20038;-76
2021/04/12 11:43:25;;;;;;;2.20;0.60;;;17.50;96.70;;;;;;4976623;28;20040;-76
2021/04/12 11:46:00;;;;;;;2.58;0.82;;;17.40;96.70;;;;;;5002765;28;20100;-77
2021/04/12 11:48:43;;;;;;;1.70;0.65;;;17.30;96.70;;;;;;4997737;28;20522;-75
2021/04/12 11:51:14;;;;;;;5.05;1.45;;;17.30;96.70;;;;;;5000434;28;20049;-78
2021/04/12 11:53:49;;;;;;;2.33;0.68;;;17.30;96.70;;;;;;4980180;28;20619;-76
2021/04/12 11:56:30;;;;;;;2.25;0.80;;;17.40;96.70;;;;;;5000342;28;20045;-79
2021/04/12 11:59:07;;;;;;;1.52;0.75;;;17.40;96.70;;;;;;5001779;28;20140;-75
2021/04/12 12:01:45;;;;;;;3.42;1.00;;;17.40;96.70;;;;;;4999812;28;20046;-76
2021/04/12 12:04:18;;;;;;;5.38;1.08;;;17.30;96.70;;;;;;4995645;28;20049;-77
2021/04/12 12:07:03;;;;;;;3.30;0.70;;;17.30;96.70;;;;;;4969780;28;20043;-77
2021/04/12 12:09:43;;;;;;;5.20;0.70;;;17.30;96.70;;;;;;4998769;28;20148;-76
2021/04/12 12:12:35;;;;;;;3.08;1.10;;;17.30;96.70;;;;;;4979321;28;20042;-76
2021/04/12 12:15:11;;;;;;;4.05;1.00;;;17.20;96.70;;;;;;4947002;28;20046;-75
2021/04/12 12:17:41;;;;;;;4.75;1.20;;;17.10;96.70;;;;;;4992053;28;20066;-76
2021/04/12 12:20:16;;;;;;;7.55;1.73;;;17.00;96.70;;;;;;4978932;28;20042;-76
2021/04/12 12:22:59;;;;;;;5.22;2.22;;;17.00;96.70;;;;;;4980472;28;20041;-76
2021/04/12 12:25:38;;;;;;;6.38;2.20;;;16.90;96.70;;;;;;4982851;28;20049;-76
2021/04/12 12:28:29;;;;;;;8.40;2.75;;;16.80;96.70;;;;;;4993824;28;20040;-76
2021/04/12 12:31:32;;;;;;;9.48;2.67;;;16.80;96.70;;;;;;4980052;28;20049;-77
2021/04/12 12:34:24;;;;;;;8.85;2.97;;;16.70;96.70;;;;;;4999903;28;20046;-76
2021/04/12 12:36:59;;;;;;;7.70;2.40;;;16.70;96.70;;;;;;4966030;28;20117;-76
2021/04/12 12:39:36;;;;;;;8.82;2.58;;;16.70;96.70;;;;;;4996530;28;20307;-76
2021/04/12 12:42:08;;;;;;;6.47;2.28;;;16.70;96.70;;;;;;4984782;28;20074;-76
2021/04/12 12:44:39;;;;;;;16.55;9.00;;;16.80;96.70;;;;;;4982810;28;20141;-76
2021/04/12 12:47:11;;;;;;;8.70;2.80;;;16.90;96.70;;;;;;4975535;28;20077;-76
2021/04/12 12:49:44;;;;;;;5.60;2.13;;;17.00;96.70;;;;;;5004260;28;20690;-77
2021/04/12 12:52:21;;;;;;;7.70;2.78;;;17.00;96.70;;;;;;4978880;28;20145;-76
2021/04/12 12:54:51;;;;;;;9.35;2.88;;;17.00;96.70;;;;;;4965152;28;20057;-77
2021/04/12 12:57:26;;;;;;;6.47;2.55;;;16.90;96.70;;;;;;4984267;28;20061;-77
2021/04/12 12:59:59;;;;;;;8.35;2.40;;;16.90;96.70;;;;;;4968213;28;20052;-76
2021/04/12 13:02:36;;;;;;;9.38;2.53;;;17.00;96.70;;;;;;4982259;28;20507;-76
2021/04/12 13:05:11;;;;;;;6.22;1.90;;;17.10;96.70;;;;;;5000572;28;20038;-76
2021/04/12 13:07:41;;;;;;;8.45;2.20;;;17.20;96.70;;;;;;4968137;28;20089;-76
2021/04/12 13:10:17;;;;;;;9.07;2.42;;;17.30;96.70;;;;;;4982591;28;20046;-76
2021/04/12 13:12:52;;;;;;;8.68;2.10;;;17.30;96.70;;;;;;4997719;28;20119;-75
2021/04/12 13:15:32;;;;;;;6.25;2.00;;;17.40;96.70;;;;;;4994797;28;20097;-75
2021/04/12 13:18:12;;;;;;;7.75;2.13;;;17.50;96.70;;;;;;4990743;28;20037;-74
2021/04/12 13:20:43;;;;;;;6.38;2.00;;;17.40;96.70;;;;;;4995839;28;20042;-76
2021/04/12 13:23:19;;;;;;;8.43;2.17;;;17.40;96.70;;;;;;4994038;28;20487;-76
2021/04/12 13:25:48;;;;;;;3.95;1.73;;;17.40;96.70;;;;;;4960759;28;20054;-75
2021/04/12 13:28:21;;;;;;;8.60;1.98;;;17.40;96.70;;;;;;4981042;28;20052;-74
2021/04/12 13:31:01;;;;;;;7.07;1.73;;;17.40;96.70;;;;;;4995378;28;20654;-75
2021/04/12 13:33:36;;;;;;;6.25;2.17;;;17.30;96.70;;;;;;4978015;28;20050;-75
2021/04/12 13:36:08;;;;;;;8.80;1.95;;;17.10;96.70;;;;;;4996073;28;20053;-75
2021/04/12 13:38:39;;;;;;;9.30;1.90;;;17.00;96.70;;;;;;4963164;28;20053;-75
2021/04/12 13:41:13;;;;;;;3.05;0.73;;;16.90;96.70;;;;;;4982338;28;20538;-75
2021/04/12 13:43:46;;;;;;;2.20;0.40;;;16.40;96.70;;;;;;4993905;28;20469;-74
2021/04/12 13:46:20;;;;;;;1.52;0.40;;;15.80;96.70;;;;;;4979647;28;20129;-75
2021/04/12 13:49:00;;;;;;;2.28;0.30;;;15.30;96.70;;;;;;4990422;28;20038;-74
2021/04/12 13:51:33;;;;;;;3.15;0.30;;;14.80;96.70;;;;;;4968053;28;20046;-75
2021/04/12 13:54:17;;;;;;;2.83;0.50;;;14.40;96.70;;;;;;4975532;28;20053;-75
2021/04/12 13:56:49;;;;;;;3.08;0.70;;;14.20;96.70;;;;;;4988828;28;20058;-75
2021/04/12 13:59:22;;;;;;;6.38;1.10;;;14.10;96.70;;;;;;4973321;28;20034;-75
2021/04/12 14:01:56;;;;;;;4.05;0.70;;;13.90;96.70;;;;;;4997257;28;20034;-75
2021/04/12 14:04:34;;;;;;;2.38;0.50;;;13.80;96.70;;;;;;4978634;28;20540;-74
2021/04/12 14:07:18;;;;;;;2.15;0.60;;;13.70;96.70;;;;;;4918881;29;20191;-74
2021/04/12 14:09:54;;;;;;;3.33;0.52;;;13.70;96.70;;;;;;4917119;29;20085;-74
2021/04/12 14:12:27;;;;;;;2.90;0.77;;;13.70;96.70;;;;;;4890366;29;20599;-75
2021/04/12 14:15:00;;;;;;;4.03;1.08;;;13.70;96.70;;;;;;4907199;29;20047;-75
2021/04/12 14:17:31;;;;;;;3.90;0.90;;;13.70;96.70;;;;;;4917847;29;20145;-77
2021/04/12 14:20:10;;;;;;;3.60;0.90;;;13.80;96.70;;;;;;4901127;29;21236;-75
2021/04/12 14:22:45;;;;;;;5.20;0.98;;;13.90;96.70;;;;;;4917863;29;20135;-76
2021/04/12 14:25:28;;;;;;;3.42;0.75;;;13.90;96.70;;;;;;4902180;29;20043;-75
2021/04/12 14:28:07;;;;;;;6.00;1.15;;;13.90;96.70;;;;;;4916336;29;20056;-75
2021/04/12 14:30:44;;;;;;;4.40;1.08;;;13.90;96.70;;;;;;4906036;29;20514;-76
2021/04/12 14:33:22;;;;;;;5.25;1.05;;;14.00;96.70;;;;;;4890013;29;20055;-75
2021/04/12 14:36:02;;;;;;;5.18;1.42;;;14.00;96.70;;;;;;4912990;29;20052;-75
2021/04/12 14:38:33;;;;;;;5.05;1.20;;;14.00;96.70;;;;;;4973922;28;20480;-75
2021/04/12 14:41:05;;;;;;;4.25;1.40;;;14.10;96.70;;;;;;4995235;28;20043;-76